This is the latest recevied weather packets stored in our database for station/object XW7RMR. If no packets are shown the sender has not sent any weather packets the latest 10 day(s).
| Time | Temp. | Humidity | Pressure | Rain* | Wind** | Luminosity | Snow |
|---|---|---|---|---|---|---|---|
| 1777225296 | 16.11° C | 49% | 1009.1 hPa | 0 mm | - | 619 W/m² | - |
| 1777224992 | 15.56° C | 52% | 1009.1 hPa | 0 mm | - | 607 W/m² | - |
| 1777224690 | 15.56° C | 52% | 1009.3 hPa | 0 mm | - | 593 W/m² | - |
| 1777224390 | 16.11° C | 50% | 1009.1 hPa | 0 mm | - | 583 W/m² | - |
| 1777224086 | 15° C | 53% | 1009 hPa | 0 mm | - | 569 W/m² | - |
| 1777223783 | 15° C | 53% | 1008.9 hPa | 0 mm | - | 557 W/m² | - |
| 1777223479 | 15° C | 54% | 1009.2 hPa | 0 mm | - | 542 W/m² | - |
| 1777223177 | 15° C | 52% | 1009 hPa | 0 mm | - | 528 W/m² | - |
| 1777222874 | 13.89° C | 56% | 1009.1 hPa | 0 mm | - | 512 W/m² | - |
| 1777222572 | 13.33° C | 58% | 1009 hPa | 0 mm | - | 500 W/m² | - |
| 1777222269 | 13.33° C | 58% | 1009.1 hPa | 0 mm | - | 486 W/m² | - |
| 1777221968 | 13.89° C | 59% | 1009 hPa | 0 mm | - | 472 W/m² | - |
| 1777221662 | 13.33° C | 60% | 1008.9 hPa | 0 mm | - | 456 W/m² | - |
| 1777221359 | 13.89° C | 58% | 1009.1 hPa | 0 mm | - | 443 W/m² | - |
| 1777221057 | 12.78° C | 61% | 1009 hPa | 0 mm | - | 427 W/m² | - |
| 1777220756 | 12.22° C | 63% | 1009.1 hPa | 0 mm | - | 398 W/m² | - |
| 1777220453 | 12.78° C | 61% | 1008.9 hPa | 0 mm | - | 397 W/m² | - |
| 1777220152 | 12.78° C | 61% | 1008.8 hPa | 0 mm | - | 380 W/m² | - |
| 1777219849 | 12.78° C | 62% | 1009.1 hPa | 0 mm | - | 367 W/m² | - |
| 1777219547 | 12.22° C | 63% | 1009 hPa | 0 mm | - | 338 W/m² | - |
| 1777219243 | 11.67° C | 64% | 1008.9 hPa | 0 mm | - | 332 W/m² | - |
| 1777218939 | 11.67° C | 64% | 1009 hPa | 0 mm | - | 317 W/m² | - |
| 1777218635 | 11.67° C | 65% | 1008.9 hPa | 0 mm | - | 302 W/m² | - |
| 1777218330 | 10° C | 70% | 1008.8 hPa | 0 mm | - | 286 W/m² | - |
| 1777218027 | 10° C | 70% | 1008.7 hPa | 0 mm | - | 271 W/m² | - |
* Rain latest hour (hover to see other rain measurements)
** Current wind speed in m/s (hover to see current wind gust speed)